Time;durP1;ratioP1;P1;durP2;ratioP2;P2;SDS_P1;SDS_P2;PMS_P1;PMS_P2;Temp;Humidity;BMP_temperature;BMP_pressure;BME280_temperature;BME280_humidity;BME280_pressure;Samples;Min_cycle;Max_cycle;Signal;HPM_P1;HPM_P2
2023/05/14 00:01:33;;;;;;;;;;;15.10;80.90;;;;;;5089022;28;20388;-74
2023/05/14 00:03:59;;;;;;;;;;;15.10;81.00;;;;;;5089384;28;20357;-74
2023/05/14 00:06:24;;;;;;;;;;;15.10;81.00;;;;;;5089147;28;19987;-69
2023/05/14 00:08:50;;;;;;;;;;;15.10;81.00;;;;;;5087607;28;19920;-72
2023/05/14 00:11:16;;;;;;;;;;;15.10;81.00;;;;;;5089041;28;20380;-71
2023/05/14 00:13:41;;;;;;;;;;;15.10;80.90;;;;;;5088158;28;19919;-72
2023/05/14 00:16:07;;;;;;;;;;;15.00;80.90;;;;;;5088874;28;19916;-72
2023/05/14 00:18:32;;;;;;;;;;;15.00;81.00;;;;;;5089077;28;20322;-72
2023/05/14 00:20:58;;;;;;;;;;;15.00;81.00;;;;;;5088991;28;19960;-72
2023/05/14 00:23:23;;;;;;;;;;;14.90;81.10;;;;;;5088678;28;19918;-71
2023/05/14 00:25:49;;;;;;;;;;;14.90;81.10;;;;;;5088950;28;19977;-72
2023/05/14 00:28:15;;;;;;;;;;;14.80;81.10;;;;;;5088793;28;19926;-72
2023/05/14 00:30:40;;;;;;;;;;;14.80;81.10;;;;;;5088616;28;20003;-72
2023/05/14 00:33:06;;;;;;;;;;;14.80;81.10;;;;;;5088762;28;19944;-72
2023/05/14 00:35:34;;;;;;;;;;;14.80;81.00;;;;;;5088810;28;19944;-72
2023/05/14 00:38:00;;;;;;;;;;;14.80;81.00;;;;;;5087374;28;19927;-72
2023/05/14 00:40:26;;;;;;;;;;;14.70;81.00;;;;;;5088657;28;19908;-72
2023/05/14 00:42:52;;;;;;;;;;;14.60;81.00;;;;;;5088530;28;19913;-72
2023/05/14 00:45:17;;;;;;;;;;;14.60;81.20;;;;;;5088594;28;19908;-72
2023/05/14 00:47:43;;;;;;;;;;;14.50;81.10;;;;;;5088495;28;20360;-72
2023/05/14 00:50:10;;;;;;;;;;;14.50;81.10;;;;;;5088298;28;19920;-72
2023/05/14 00:52:36;;;;;;;;;;;14.50;81.10;;;;;;5088453;28;19908;-72
2023/05/14 00:55:04;;;;;;;;;;;14.50;81.10;;;;;;5088373;28;19912;-72
2023/05/14 00:57:30;;;;;;;;;;;14.40;81.10;;;;;;5087017;28;19912;-72
2023/05/14 00:59:55;;;;;;;;;;;14.40;81.20;;;;;;5086656;28;19965;-72
2023/05/14 01:02:21;;;;;;;;;;;14.40;81.40;;;;;;5086809;28;19931;-72
2023/05/14 01:04:46;;;;;;;;;;;14.40;81.50;;;;;;5086999;28;19916;-72
2023/05/14 01:07:21;;;;;;;;;;;14.50;81.50;;;;;;5088173;28;19951;-72
2023/05/14 01:09:52;;;;;;;;;;;14.50;81.30;;;;;;5088325;28;19913;-72
2023/05/14 01:12:21;;;;;;;;;;;14.50;81.30;;;;;;5088032;28;19919;-72
2023/05/14 01:14:46;;;;;;;;;;;14.50;81.20;;;;;;5088108;28;19912;-71
2023/05/14 01:17:13;;;;;;;;;;;14.50;81.10;;;;;;5088013;28;19915;-71
2023/05/14 01:19:40;;;;;;;;;;;14.50;81.10;;;;;;5087939;28;20218;-72
2023/05/14 01:22:05;;;;;;;;;;;14.40;81.00;;;;;;5088060;28;19915;-72
2023/05/14 01:24:31;;;;;;;;;;;14.40;81.10;;;;;;5087886;28;19908;-72
2023/05/14 01:27:00;;;;;;;;;;;14.40;81.10;;;;;;5087910;28;19908;-72
2023/05/14 01:29:27;;;;;;;;;;;14.40;81.10;;;;;;5086411;28;20322;-72
2023/05/14 01:31:54;;;;;;;;;;;14.30;81.20;;;;;;5087968;28;19908;-71
2023/05/14 01:34:21;;;;;;;;;;;14.30;81.20;;;;;;5087213;28;20392;-72
2023/05/14 01:36:47;;;;;;;;;;;14.30;81.30;;;;;;5087751;28;19965;-71
2023/05/14 01:39:14;;;;;;;;;;;14.30;81.30;;;;;;5087664;28;20039;-71
2023/05/14 01:41:41;;;;;;;;;;;14.30;81.30;;;;;;5087640;28;20275;-72
2023/05/14 01:44:08;;;;;;;;;;;14.30;81.30;;;;;;5087616;28;20357;-71
2023/05/14 01:46:33;;;;;;;;;;;14.40;81.30;;;;;;5087987;28;19968;-72
2023/05/14 01:48:59;;;;;;;;;;;14.40;81.20;;;;;;5087971;28;19920;-72
2023/05/14 01:51:25;;;;;;;;;;;14.40;81.60;;;;;;5087628;28;19924;-71
2023/05/14 01:53:50;;;;;;;;;;;14.30;81.00;;;;;;5087640;28;19916;-71
2023/05/14 01:56:22;;;;;;;;;;;14.30;81.00;;;;;;5087953;28;19915;-71
2023/05/14 01:58:48;;;;;;;;;;;14.20;81.00;;;;;;5086222;28;20352;-71
2023/05/14 02:01:14;;;;;;;;;;;14.10;81.00;;;;;;5087460;28;19927;-72
2023/05/14 02:03:40;;;;;;;;;;;14.10;81.20;;;;;;5087524;28;20005;-71
2023/05/14 02:06:05;;;;;;;;;;;14.10;81.20;;;;;;5087564;28;19916;-72
2023/05/14 02:08:31;;;;;;;;;;;14.10;81.20;;;;;;5087240;28;20037;-72
2023/05/14 02:10:56;;;;;;;;;;;14.20;81.10;;;;;;5087488;28;20367;-72
2023/05/14 02:13:22;;;;;;;;;;;14.20;81.00;;;;;;5087489;28;19912;-72
2023/05/14 02:15:48;;;;;;;;;;;14.20;80.90;;;;;;5087647;28;19916;-71
2023/05/14 02:18:14;;;;;;;;;;;14.20;80.80;;;;;;5087404;28;19909;-72
2023/05/14 02:20:39;;;;;;;;;;;14.20;80.80;;;;;;5086101;28;19969;-71
2023/05/14 02:23:05;;;;;;;;;;;14.20;80.80;;;;;;5087406;28;19965;-72
2023/05/14 02:25:31;;;;;;;;;;;14.30;80.90;;;;;;5086035;28;20345;-71
2023/05/14 02:27:56;;;;;;;;;;;14.30;80.80;;;;;;5087531;28;19912;-71
2023/05/14 02:30:22;;;;;;;;;;;14.30;80.80;;;;;;5087223;28;19924;-72
2023/05/14 02:32:47;;;;;;;;;;;14.30;80.80;;;;;;5087366;28;19998;-71
2023/05/14 02:35:13;;;;;;;;;;;14.30;80.80;;;;;;5087441;28;19919;-71
2023/05/14 02:37:38;;;;;;;;;;;14.30;80.80;;;;;;5086116;28;19923;-71
2023/05/14 02:40:04;;;;;;;;;;;14.30;80.70;;;;;;5087172;28;19919;-72
2023/05/14 02:42:30;;;;;;;;;;;14.30;80.70;;;;;;5087354;28;20005;-72
2023/05/14 02:44:55;;;;;;;;;;;14.30;80.70;;;;;;5087410;28;19913;-71
2023/05/14 02:47:21;;;;;;;;;;;14.30;80.70;;;;;;5090940;28;19953;-71
2023/05/14 02:49:47;;;;;;;;;;;14.30;80.70;;;;;;5090535;28;19916;-71
2023/05/14 02:52:12;;;;;;;;;;;14.20;80.70;;;;;;5090654;28;19919;-72
2023/05/14 02:54:38;;;;;;;;;;;14.20;80.70;;;;;;5090701;28;20448;-72
2023/05/14 02:57:03;;;;;;;;;;;14.20;80.70;;;;;;5090754;28;19912;-71
2023/05/14 02:59:30;;;;;;;;;;;14.20;80.70;;;;;;5090764;28;20356;-72
2023/05/14 03:01:56;;;;;;;;;;;14.20;80.70;;;;;;5090387;28;19966;-71
2023/05/14 03:04:22;;;;;;;;;;;14.10;80.70;;;;;;5091111;28;19912;-71
2023/05/14 03:06:47;;;;;;;;;;;14.10;80.70;;;;;;5090621;28;20036;-71
2023/05/14 03:09:13;;;;;;;;;;;14.10;80.70;;;;;;5090342;28;20288;-71
2023/05/14 03:11:39;;;;;;;;;;;14.10;80.70;;;;;;5090524;28;20179;-71
2023/05/14 03:14:04;;;;;;;;;;;14.10;80.80;;;;;;5089150;28;19973;-71
2023/05/14 03:16:30;;;;;;;;;;;14.00;80.80;;;;;;5090541;28;19912;-72
2023/05/14 03:18:55;;;;;;;;;;;14.10;80.90;;;;;;5090246;28;19908;-72
2023/05/14 03:21:21;;;;;;;;;;;14.10;80.90;;;;;;5090330;28;19915;-72
2023/05/14 03:23:46;;;;;;;;;;;14.20;81.00;;;;;;5090142;28;19916;-71
2023/05/14 03:26:12;;;;;;;;;;;14.30;81.00;;;;;;5090149;28;19914;-69
2023/05/14 03:28:38;;;;;;;;;;;14.30;80.90;;;;;;5090118;28;19912;-70
2023/05/14 03:31:04;;;;;;;;;;;14.40;80.90;;;;;;5090016;28;19951;-71
2023/05/14 03:33:30;;;;;;;;;;;14.40;80.80;;;;;;5088776;28;19947;-71
2023/05/14 03:35:55;;;;;;;;;;;14.40;80.80;;;;;;5089980;28;19916;-72
2023/05/14 03:38:21;;;;;;;;;;;14.40;80.80;;;;;;5089938;28;19995;-71
2023/05/14 03:40:46;;;;;;;;;;;14.40;80.70;;;;;;5089795;28;19912;-71
2023/05/14 03:43:12;;;;;;;;;;;14.30;80.70;;;;;;5089777;28;20007;-72
2023/05/14 03:45:37;;;;;;;;;;;14.30;80.70;;;;;;5089772;28;19919;-71
2023/05/14 03:48:03;;;;;;;;;;;14.30;80.80;;;;;;5089716;28;20394;-72
2023/05/14 03:50:29;;;;;;;;;;;14.30;80.80;;;;;;5089614;28;19923;-72
2023/05/14 03:52:55;;;;;;;;;;;14.40;80.80;;;;;;5088339;28;19922;-71
2023/05/14 03:55:20;;;;;;;;;;;14.30;80.70;;;;;;5089621;28;19912;-72
2023/05/14 03:57:49;;;;;;;;;;;14.30;80.70;;;;;;5088952;28;19912;-71
2023/05/14 04:00:15;;;;;;;;;;;14.30;80.70;;;;;;5089499;28;20311;-71
2023/05/14 04:02:41;;;;;;;;;;;14.30;80.80;;;;;;5089293;28;20023;-70
2023/05/14 04:05:07;;;;;;;;;;;14.30;80.80;;;;;;5089518;28;19912;-71
2023/05/14 04:07:32;;;;;;;;;;;14.30;80.80;;;;;;5089389;28;19908;-71
2023/05/14 04:09:58;;;;;;;;;;;14.30;80.80;;;;;;5089252;28;19920;-72
2023/05/14 04:12:25;;;;;;;;;;;14.30;80.80;;;;;;5088118;28;19973;-71
2023/05/14 04:14:51;;;;;;;;;;;14.30;80.80;;;;;;5089261;28;19916;-71
2023/05/14 04:17:18;;;;;;;;;;;14.30;80.80;;;;;;5088326;28;20217;-72
2023/05/14 04:19:44;;;;;;;;;;;14.30;80.80;;;;;;5087770;28;19912;-72
2023/05/14 04:22:09;;;;;;;;;;;14.30;80.80;;;;;;5089208;28;19912;-71
2023/05/14 04:24:35;;;;;;;;;;;14.30;80.80;;;;;;5089262;28;19924;-72
2023/05/14 04:27:01;;;;;;;;;;;14.30;81.00;;;;;;5087714;28;19912;-72
2023/05/14 04:29:26;;;;;;;;;;;14.40;81.00;;;;;;5087455;28;19937;-72
2023/05/14 04:31:52;;;;;;;;;;;14.40;81.00;;;;;;5089350;28;19912;-72
2023/05/14 04:34:17;;;;;;;;;;;14.40;81.40;;;;;;5088931;28;19908;-72
2023/05/14 04:36:43;;;;;;;;;;;14.40;80.90;;;;;;5087662;28;19912;-72
2023/05/14 04:39:11;;;;;;;;;;;14.50;80.90;;;;;;5088864;28;20038;-72
2023/05/14 04:41:36;;;;;;;;;;;14.50;80.90;;;;;;5088812;28;20330;-70
2023/05/14 04:44:02;;;;;;;;;;;14.50;81.30;;;;;;5088686;28;20004;-72
2023/05/14 04:46:27;;;;;;;;;;;14.50;80.80;;;;;;5087347;28;19913;-72
2023/05/14 04:48:53;;;;;;;;;;;14.50;80.90;;;;;;5088438;28;19917;-72
2023/05/14 04:51:19;;;;;;;;;;;14.60;81.00;;;;;;5088554;28;20038;-71
2023/05/14 04:53:44;;;;;;;;;;;14.60;80.90;;;;;;5087251;28;19912;-72
2023/05/14 04:56:10;;;;;;;;;;;14.60;80.90;;;;;;5088575;28;20020;-71
2023/05/14 04:58:35;;;;;;;;;;;14.60;80.80;;;;;;5088499;28;19913;-71
2023/05/14 05:01:01;;;;;;;;;;;14.60;80.80;;;;;;5088370;28;19919;-72
2023/05/14 05:03:27;;;;;;;;;;;14.60;80.90;;;;;;5088217;28;19920;-71
2023/05/14 05:05:53;;;;;;;;;;;14.60;80.90;;;;;;5088364;28;19949;-71
2023/05/14 05:08:18;;;;;;;;;;;14.60;80.90;;;;;;5088022;28;19949;-72
2023/05/14 05:10:44;;;;;;;;;;;14.60;80.90;;;;;;5087547;28;20421;-71
2023/05/14 05:13:09;;;;;;;;;;;14.70;81.10;;;;;;5086904;28;20280;-71
2023/05/14 05:15:35;;;;;;;;;;;14.70;81.10;;;;;;5087973;28;19916;-71
2023/05/14 05:18:00;;;;;;;;;;;14.70;81.10;;;;;;5088140;28;19999;-71
2023/05/14 05:20:27;;;;;;;;;;;14.70;81.10;;;;;;5088030;28;19916;-71
2023/05/14 05:22:52;;;;;;;;;;;14.70;81.10;;;;;;5086968;28;19912;-71
2023/05/14 05:25:18;;;;;;;;;;;14.70;81.10;;;;;;5088166;28;19923;-71
2023/05/14 05:27:44;;;;;;;;;;;14.70;81.00;;;;;;5088051;28;19908;-71
2023/05/14 05:30:10;;;;;;;;;;;14.80;81.50;;;;;;5087866;28;19912;-71
2023/05/14 05:32:35;;;;;;;;;;;14.80;81.00;;;;;;5087983;28;19916;-72
2023/05/14 05:35:01;;;;;;;;;;;14.80;80.90;;;;;;5087967;28;19915;-71
2023/05/14 05:37:27;;;;;;;;;;;14.80;80.90;;;;;;5086711;28;19916;-72
2023/05/14 05:39:52;;;;;;;;;;;14.80;80.90;;;;;;5086517;28;20360;-72
2023/05/14 05:42:18;;;;;;;;;;;14.80;80.90;;;;;;5087919;28;19962;-71
2023/05/14 05:44:44;;;;;;;;;;;14.90;80.90;;;;;;5087889;28;20352;-72
2023/05/14 05:47:09;;;;;;;;;;;14.80;80.90;;;;;;5087955;28;19912;-72
2023/05/14 05:49:36;;;;;;;;;;;14.90;80.90;;;;;;5087671;28;20001;-71
2023/05/14 05:52:02;;;;;;;;;;;14.90;80.90;;;;;;5087818;28;20277;-72
2023/05/14 05:54:31;;;;;;;;;;;14.80;80.90;;;;;;5087829;28;20003;-72
2023/05/14 05:56:56;;;;;;;;;;;14.90;81.00;;;;;;5087763;28;19912;-71
2023/05/14 05:59:23;;;;;;;;;;;14.90;81.50;;;;;;5087707;28;19915;-71
2023/05/14 06:01:48;;;;;;;;;;;14.90;81.00;;;;;;5087654;28;19953;-72
2023/05/14 06:04:14;;;;;;;;;;;14.90;81.00;;;;;;5087744;28;19928;-72
2023/05/14 06:06:40;;;;;;;;;;;14.90;81.10;;;;;;5087706;28;19917;-72
2023/05/14 06:09:05;;;;;;;;;;;14.90;81.10;;;;;;5087493;28;20383;-71
2023/05/14 06:11:31;;;;;;;;;;;14.90;81.50;;;;;;5086391;28;19920;-72
2023/05/14 06:13:57;;;;;;;;;;;14.90;81.10;;;;;;5087763;28;19919;-71
2023/05/14 06:16:22;;;;;;;;;;;14.90;81.10;;;;;;5087521;28;19957;-72
2023/05/14 06:18:48;;;;;;;;;;;14.90;81.10;;;;;;5087422;28;19970;-72
2023/05/14 06:21:13;;;;;;;;;;;14.90;81.10;;;;;;5089798;28;19976;-72
2023/05/14 06:23:40;;;;;;;;;;;15.00;81.20;;;;;;5091399;28;19917;-72
2023/05/14 06:26:05;;;;;;;;;;;15.00;81.10;;;;;;5091404;28;19916;-71
2023/05/14 06:28:31;;;;;;;;;;;15.10;81.10;;;;;;5091237;28;19939;-72
2023/05/14 06:30:56;;;;;;;;;;;15.10;81.10;;;;;;5091076;28;19999;-72
2023/05/14 06:33:29;;;;;;;;;;;15.10;81.20;;;;;;5091153;28;19930;-71
2023/05/14 06:35:55;;;;;;;;;;;15.10;81.10;;;;;;5091134;28;19931;-71
2023/05/14 06:38:21;;;;;;;;;;;15.20;81.20;;;;;;5091049;28;19962;-72
2023/05/14 06:40:46;;;;;;;;;;;15.20;81.20;;;;;;5090921;28;20384;-71
2023/05/14 06:43:12;;;;;;;;;;;15.30;81.20;;;;;;5091342;28;19921;-72
2023/05/14 06:45:37;;;;;;;;;;;15.30;81.20;;;;;;5090842;28;19951;-72
2023/05/14 06:48:03;;;;;;;;;;;15.40;81.30;;;;;;5090794;28;20287;-72
2023/05/14 06:50:29;;;;;;;;;;;15.40;81.20;;;;;;5090804;28;19916;-72
2023/05/14 06:52:55;;;;;;;;;;;15.50;81.20;;;;;;5090716;28;19916;-72
2023/05/14 06:55:20;;;;;;;;;;;15.50;81.20;;;;;;5090785;28;20368;-72
2023/05/14 06:57:46;;;;;;;;;;;15.50;81.10;;;;;;5090758;28;19946;-72
2023/05/14 07:00:13;;;;;;;;;;;15.60;81.30;;;;;;5089187;28;19912;-71
2023/05/14 07:02:38;;;;;;;;;;;15.60;81.30;;;;;;5090241;28;19928;-72
2023/05/14 07:05:04;;;;;;;;;;;15.70;81.30;;;;;;5089038;28;19919;-72
2023/05/14 07:07:30;;;;;;;;;;;15.70;81.30;;;;;;5090536;28;19912;-72
2023/05/14 07:09:55;;;;;;;;;;;15.80;81.30;;;;;;5089166;28;19916;-72
2023/05/14 07:12:21;;;;;;;;;;;15.80;81.30;;;;;;5089072;28;19919;-71
2023/05/14 07:14:46;;;;;;;;;;;15.90;81.30;;;;;;5090391;28;20269;-72
2023/05/14 07:17:12;;;;;;;;;;;16.00;81.20;;;;;;5090770;28;19920;-72
2023/05/14 07:19:37;;;;;;;;;;;16.10;81.30;;;;;;5090274;28;19912;-72
2023/05/14 07:22:03;;;;;;;;;;;16.10;81.30;;;;;;5090163;28;19916;-71
2023/05/14 07:24:29;;;;;;;;;;;16.20;81.40;;;;;;5090295;28;19961;-72
2023/05/14 07:26:56;;;;;;;;;;;16.30;81.40;;;;;;5090216;28;19962;-72
2023/05/14 07:29:22;;;;;;;;;;;16.30;81.30;;;;;;5089929;28;19913;-72
2023/05/14 07:31:47;;;;;;;;;;;16.30;81.30;;;;;;5089057;28;19947;-72
2023/05/14 07:34:13;;;;;;;;;;;16.40;81.30;;;;;;5088443;28;19978;-72
2023/05/14 07:36:39;;;;;;;;;;;16.40;81.30;;;;;;5090049;28;19920;-72
2023/05/14 07:39:05;;;;;;;;;;;16.50;81.30;;;;;;5088605;28;19912;-72
2023/05/14 07:41:31;;;;;;;;;;;16.70;81.50;;;;;;5089927;28;20329;-72
2023/05/14 07:43:56;;;;;;;;;;;16.80;81.40;;;;;;5089798;28;19912;-72
2023/05/14 07:46:22;;;;;;;;;;;17.00;81.60;;;;;;5088366;28;19912;-72
2023/05/14 07:48:48;;;;;;;;;;;17.20;81.70;;;;;;5089448;28;19994;-72
2023/05/14 07:51:13;;;;;;;;;;;17.40;81.80;;;;;;5089640;28;20028;-72
2023/05/14 07:53:40;;;;;;;;;;;17.80;81.70;;;;;;5089495;28;19968;-72
2023/05/14 07:56:05;;;;;;;;;;;18.00;81.40;;;;;;5089398;28;19912;-72
2023/05/14 07:58:31;;;;;;;;;;;18.00;81.10;;;;;;5089220;28;19923;-70
2023/05/14 08:00:56;;;;;;;;;;;18.00;80.90;;;;;;5089106;28;19912;-72
2023/05/14 08:03:22;;;;;;;;;;;17.90;80.80;;;;;;5087805;28;19924;-72
2023/05/14 08:05:48;;;;;;;;;;;17.70;80.90;;;;;;5089405;28;19912;-72
2023/05/14 08:08:13;;;;;;;;;;;17.60;81.10;;;;;;5088051;28;20368;-72
2023/05/14 08:10:39;;;;;;;;;;;17.60;81.40;;;;;;5088604;28;19927;-72
2023/05/14 08:13:04;;;;;;;;;;;17.80;81.80;;;;;;5088837;28;19912;-72
2023/05/14 08:15:30;;;;;;;;;;;18.10;81.80;;;;;;5089164;28;19912;-72
2023/05/14 08:17:57;;;;;;;;;;;18.40;81.50;;;;;;5089439;28;20324;-72
2023/05/14 08:20:23;;;;;;;;;;;18.50;81.20;;;;;;5088844;28;19919;-73
2023/05/14 08:22:48;;;;;;;;;;;18.40;80.90;;;;;;5087544;28;20380;-72
2023/05/14 08:25:14;;;;;;;;;;;18.30;80.90;;;;;;5088846;28;19978;-72
2023/05/14 08:27:39;;;;;;;;;;;18.30;81.00;;;;;;5087120;28;19912;-72
2023/05/14 08:30:06;;;;;;;;;;;18.20;80.70;;;;;;5087325;28;20002;-72
2023/05/14 08:32:31;;;;;;;;;;;17.80;80.20;;;;;;5088719;28;19916;-72
2023/05/14 08:34:57;;;;;;;;;;;17.40;80.10;;;;;;5088733;28;19920;-72
2023/05/14 08:37:22;;;;;;;;;;;17.00;80.10;;;;;;5087249;28;20456;-72
2023/05/14 08:39:48;;;;;;;;;;;16.70;80.30;;;;;;5088544;28;19922;-72
2023/05/14 08:42:14;;;;;;;;;;;16.40;80.50;;;;;;5087572;28;19920;-72
2023/05/14 08:44:52;;;;;;;;;;;16.20;80.80;;;;;;5087239;28;20329;-72
2023/05/14 08:47:20;;;;;;;;;;;16.20;81.00;;;;;;5087233;28;19908;-72
2023/05/14 08:49:46;;;;;;;;;;;16.10;80.90;;;;;;5086859;28;20292;-72
2023/05/14 08:52:12;;;;;;;;;;;16.10;81.00;;;;;;5088285;28;19919;-72
2023/05/14 08:54:38;;;;;;;;;;;16.00;80.90;;;;;;5088316;28;19908;-72
2023/05/14 08:57:04;;;;;;;;;;;15.90;80.70;;;;;;5088011;28;20294;-72
2023/05/14 08:59:30;;;;;;;;;;;15.70;80.70;;;;;;5087809;28;19960;-72
2023/05/14 09:01:57;;;;;;;;;;;15.60;80.80;;;;;;5086447;28;19924;-72
2023/05/14 09:04:23;;;;;;;;;;;15.50;80.90;;;;;;5088338;28;20035;-73
2023/05/14 09:06:52;;;;;;;;;;;15.60;81.20;;;;;;5087895;28;19969;-72
2023/05/14 09:09:21;;;;;;;;;;;15.70;81.30;;;;;;5087996;28;20394;-72
2023/05/14 09:11:50;;;;;;;;;;;15.80;81.20;;;;;;5088462;28;20233;-72
2023/05/14 09:14:15;;;;;;;;;;;15.80;81.10;;;;;;5088160;28;19919;-72
2023/05/14 09:16:44;;;;;;;;;;;15.90;81.10;;;;;;5087929;28;19912;-72
2023/05/14 09:19:10;;;;;;;;;;;16.00;81.10;;;;;;5087750;28;19908;-72
2023/05/14 09:21:36;;;;;;;;;;;16.10;81.00;;;;;;5087872;28;20004;-72
2023/05/14 09:24:02;;;;;;;;;;;16.20;81.20;;;;;;5088411;28;19958;-71
2023/05/14 09:26:30;;;;;;;;;;;16.50;81.70;;;;;;5069615;28;19912;-71
2023/05/14 09:28:56;;;;;;;;;;;16.80;81.60;;;;;;5087686;28;19917;-70
2023/05/14 09:31:22;;;;;;;;;;;17.20;81.60;;;;;;5087852;28;19919;-71
2023/05/14 09:33:51;;;;;;;;;;;17.50;81.30;;;;;;5087686;28;20300;-71
2023/05/14 09:36:16;;;;;;;;;;;17.70;81.00;;;;;;5087666;28;19908;-71
2023/05/14 09:38:42;;;;;;;;;;;17.70;80.80;;;;;;5087672;28;20373;-71
2023/05/14 09:41:08;;;;;;;;;;;17.70;80.60;;;;;;5087679;28;19923;-71
2023/05/14 09:43:33;;;;;;;;;;;17.60;80.50;;;;;;5069438;28;20426;-71
2023/05/14 09:45:59;;;;;;;;;;;17.60;80.90;;;;;;5086132;28;19912;-71
2023/05/14 09:48:24;;;;;;;;;;;17.60;80.90;;;;;;5087313;28;20007;-71
2023/05/14 09:50:51;;;;;;;;;;;17.50;80.70;;;;;;5087254;28;20018;-71
2023/05/14 09:53:16;;;;;;;;;;;17.40;80.60;;;;;;5088031;28;19909;-71
2023/05/14 09:55:42;;;;;;;;;;;17.20;80.70;;;;;;5087744;28;19908;-71
2023/05/14 09:58:07;;;;;;;;;;;17.10;80.80;;;;;;5090000;28;19927;-71
2023/05/14 10:00:33;;;;;;;;;;;17.00;80.90;;;;;;5091314;28;19912;-74
2023/05/14 10:03:03;;;;;;;;;;;17.00;81.30;;;;;;5091147;28;19928;-75
2023/05/14 10:05:29;;;;;;;;;;;17.00;81.50;;;;;;5091468;28;19951;-75
2023/05/14 10:07:56;;;;;;;;;;;17.10;81.50;;;;;;5091199;28;19920;-74
2023/05/14 10:10:23;;;;;;;;;;;17.20;81.50;;;;;;5089787;28;19987;-75
2023/05/14 10:12:55;;;;;;;;;;;17.30;81.40;;;;;;5091394;28;19912;-74
2023/05/14 10:15:32;;;;;;;;;;;17.20;81.00;;;;;;5090036;28;19958;-74
2023/05/14 10:18:00;;;;;;;;;;;17.10;81.00;;;;;;5091258;28;20275;-74
2023/05/14 10:20:26;;;;;;;;;;;17.00;81.00;;;;;;5091170;28;20287;-74
2023/05/14 10:22:52;;;;;;;;;;;16.90;81.10;;;;;;5090995;28;19908;-75
2023/05/14 10:25:17;;;;;;;;;;;16.80;81.30;;;;;;5090851;28;19912;-74
2023/05/14 10:27:43;;;;;;;;;;;16.80;81.30;;;;;;5089815;28;20365;-75
2023/05/14 10:30:10;;;;;;;;;;;16.80;81.30;;;;;;5090940;28;20356;-74
2023/05/14 10:32:36;;;;;;;;;;;16.80;81.30;;;;;;5089672;28;20007;-77
2023/05/14 10:35:13;;;;;;;;;;;16.80;81.40;;;;;;5091109;28;20003;-77
2023/05/14 10:37:39;;;;;;;;;;;17.00;81.70;;;;;;5091166;28;20264;-77
2023/05/14 10:40:07;;;;;;;;;;;17.20;81.90;;;;;;5090914;28;19933;-77
2023/05/14 10:42:39;;;;;;;;;;;17.50;82.00;;;;;;5089358;28;19912;-77
2023/05/14 10:45:07;;;;;;;;;;;17.80;81.90;;;;;;5090516;28;19908;-77
2023/05/14 10:47:36;;;;;;;;;;;18.00;81.80;;;;;;5090743;28;20358;-77
2023/05/14 10:50:03;;;;;;;;;;;18.30;81.70;;;;;;5090487;28;19923;-77
2023/05/14 10:52:29;;;;;;;;;;;18.60;81.90;;;;;;5090631;28;19965;-77
2023/05/14 10:54:56;;;;;;;;;;;19.10;82.20;;;;;;5090376;28;20026;-78
2023/05/14 10:57:22;;;;;;;;;;;19.40;81.80;;;;;;5090466;28;19908;-77
2023/05/14 10:59:52;;;;;;;;;;;19.70;81.70;;;;;;5089070;28;20315;-77
2023/05/14 11:02:18;;;;;;;;;;;19.70;81.40;;;;;;5090074;28;20118;-77
2023/05/14 11:04:50;;;;;;;;;;;19.50;81.00;;;;;;5090252;28;19912;-77
2023/05/14 11:07:17;;;;;;;;;;;18.90;80.20;;;;;;5090061;28;19986;-71
2023/05/14 11:09:42;;;;;;;;;;;18.20;80.80;;;;;;5089840;28;19916;-71
2023/05/14 11:12:08;;;;;;;;;;;17.60;81.50;;;;;;5089966;28;19916;-71
2023/05/14 11:14:33;;;;;;;;;;;17.30;82.20;;;;;;5089927;28;20281;-71
2023/05/14 11:16:59;;;;;;;;;;;17.20;82.30;;;;;;5089448;28;19916;-71
2023/05/14 11:19:25;;;;;;;;;;;17.10;82.30;;;;;;5089771;28;20424;-71
2023/05/14 11:21:50;;;;;;;;;;;17.00;82.30;;;;;;5089926;28;19920;-71
2023/05/14 11:24:16;;;;;;;;;;;17.00;82.30;;;;;;5088285;28;20011;-71
2023/05/14 11:26:41;;;;;;;;;;;16.90;82.20;;;;;;5088264;28;19912;-71
2023/05/14 11:29:07;;;;;;;;;;;16.90;82.10;;;;;;5088190;28;19969;-72
2023/05/14 11:31:33;;;;;;;;;;;16.80;82.20;;;;;;5089755;28;20443;-71
2023/05/14 11:33:59;;;;;;;;;;;16.90;82.30;;;;;;5089646;28;20018;-71
2023/05/14 11:36:25;;;;;;;;;;;16.90;82.30;;;;;;5089709;28;19908;-72
2023/05/14 11:38:51;;;;;;;;;;;17.00;82.20;;;;;;5089611;28;19972;-71
2023/05/14 11:41:16;;;;;;;;;;;17.20;82.20;;;;;;5089561;28;19908;-71
2023/05/14 11:43:42;;;;;;;;;;;17.30;81.90;;;;;;5089175;28;19916;-70
2023/05/14 11:46:14;;;;;;;;;;;17.30;81.60;;;;;;5087692;28;19918;-71
2023/05/14 11:48:40;;;;;;;;;;;17.30;81.70;;;;;;5089451;28;19953;-72
2023/05/14 11:51:06;;;;;;;;;;;17.30;81.90;;;;;;5089539;28;20203;-72
2023/05/14 11:53:32;;;;;;;;;;;17.40;82.10;;;;;;5089507;28;20384;-71
2023/05/14 11:55:57;;;;;;;;;;;17.70;82.60;;;;;;5089049;28;19912;-71
2023/05/14 11:58:23;;;;;;;;;;;18.30;83.20;;;;;;5088973;28;19919;-70
2023/05/14 12:00:52;;;;;;;;;;;19.10;84.00;;;;;;5088725;28;19919;-71
2023/05/14 12:03:24;;;;;;;;;;;20.20;84.40;;;;;;5087217;28;19977;-71
2023/05/14 12:05:56;;;;;;;;;;;21.10;84.10;;;;;;5088682;28;19935;-71
2023/05/14 12:08:25;;;;;;;;;;;21.40;83.60;;;;;;5088821;28;19930;-71
2023/05/14 12:10:51;;;;;;;;;;;21.60;83.50;;;;;;5088789;28;20375;-72
2023/05/14 12:13:17;;;;;;;;;;;21.80;83.40;;;;;;5087354;28;19916;-72
2023/05/14 12:15:53;;;;;;;;;;;21.90;83.10;;;;;;5087172;28;19920;-71
2023/05/14 12:18:19;;;;;;;;;;;21.70;82.40;;;;;;5088372;28;20019;-72
2023/05/14 12:20:45;;;;;;;;;;;21.10;82.30;;;;;;5088757;28;20259;-72
2023/05/14 12:23:12;;;;;;;;;;;20.60;82.40;;;;;;5088326;28;20028;-71
2023/05/14 12:25:37;;;;;;;;;;;20.30;82.80;;;;;;5088360;28;20003;-71
2023/05/14 12:28:12;;;;;;;;;;;20.10;83.10;;;;;;5088227;28;19999;-72
2023/05/14 12:30:38;;;;;;;;;;;20.30;83.60;;;;;;5088272;28;19919;-72
2023/05/14 12:33:03;;;;;;;;;;;20.60;84.30;;;;;;5088317;28;19914;-72
2023/05/14 12:35:29;;;;;;;;;;;21.50;85.60;;;;;;5088414;28;19912;-72
2023/05/14 12:37:54;;;;;;;;;;;22.50;85.30;;;;;;5088280;28;20288;-71
2023/05/14 12:40:20;;;;;;;;;;;22.60;83.50;;;;;;5086779;28;20384;-72
2023/05/14 12:42:45;;;;;;;;;;;22.00;82.50;;;;;;5088113;28;19951;-71
2023/05/14 12:45:11;;;;;;;;;;;20.90;82.40;;;;;;5088034;28;19909;-71
2023/05/14 12:47:37;;;;;;;;;;;20.20;83.30;;;;;;5087083;28;19912;-71
2023/05/14 12:50:03;;;;;;;;;;;19.90;84.60;;;;;;5088026;28;19919;-72
2023/05/14 12:52:28;;;;;;;;;;;19.80;84.60;;;;;;5088014;28;20011;-72
2023/05/14 12:54:54;;;;;;;;;;;19.60;84.10;;;;;;5088055;28;19912;-72
2023/05/14 12:57:19;;;;;;;;;;;19.20;84.20;;;;;;5088255;28;19912;-72
2023/05/14 12:59:45;;;;;;;;;;;19.10;84.60;;;;;;5086359;28;19914;-72
2023/05/14 13:02:10;;;;;;;;;;;19.10;84.60;;;;;;5087732;28;19934;-71
2023/05/14 13:04:37;;;;;;;;;;;19.40;84.40;;;;;;5087940;28;19958;-72
2023/05/14 13:07:02;;;;;;;;;;;19.60;84.20;;;;;;5087761;28;19943;-72
2023/05/14 13:09:28;;;;;;;;;;;20.00;84.50;;;;;;5087543;28;19920;-71
2023/05/14 13:11:53;;;;;;;;;;;20.80;85.20;;;;;;5087299;28;19912;-72
2023/05/14 13:14:19;;;;;;;;;;;21.40;85.10;;;;;;5086531;28;19916;-71
2023/05/14 13:16:44;;;;;;;;;;;21.80;84.90;;;;;;5087717;28;19924;-71
2023/05/14 13:19:10;;;;;;;;;;;22.00;84.60;;;;;;5087418;28;20364;-72
2023/05/14 13:21:36;;;;;;;;;;;22.00;83.90;;;;;;5087576;28;19916;-72
2023/05/14 13:24:01;;;;;;;;;;;21.70;83.80;;;;;;5086204;28;19912;-72
2023/05/14 13:26:27;;;;;;;;;;;21.60;84.40;;;;;;5087340;28;19927;-71
2023/05/14 13:28:53;;;;;;;;;;;21.70;84.30;;;;;;5087170;28;19912;-71
2023/05/14 13:31:18;;;;;;;;;;;21.70;83.80;;;;;;5086043;28;19920;-71
2023/05/14 13:33:44;;;;;;;;;;;21.40;83.20;;;;;;5086925;28;19958;-71
2023/05/14 13:36:10;;;;;;;;;;;21.00;83.60;;;;;;5085853;28;19912;-72
2023/05/14 13:38:36;;;;;;;;;;;20.90;84.40;;;;;;5087120;28;19908;-72
2023/05/14 13:41:02;;;;;;;;;;;21.10;84.50;;;;;;5087149;28;19919;-72
2023/05/14 13:43:31;;;;;;;;;;;21.30;84.10;;;;;;5087531;28;19912;-72
2023/05/14 13:45:57;;;;;;;;;;;21.20;83.70;;;;;;5086931;28;20095;-72
2023/05/14 13:48:23;;;;;;;;;;;21.20;83.90;;;;;;5086693;28;20025;-72
2023/05/14 13:50:50;;;;;;;;;;;21.30;83.60;;;;;;5086612;28;19916;-72
2023/05/14 13:53:17;;;;;;;;;;;21.30;83.60;;;;;;5086723;28;20005;-72
2023/05/14 13:55:42;;;;;;;;;;;21.40;83.60;;;;;;5086764;28;19931;-72
2023/05/14 13:58:08;;;;;;;;;;;21.50;83.60;;;;;;5086841;28;20014;-72
2023/05/14 14:00:34;;;;;;;;;;;21.80;83.60;;;;;;5087204;28;19912;-72
2023/05/14 14:02:59;;;;;;;;;;;21.90;83.00;;;;;;5086689;28;20433;-72
2023/05/14 14:05:27;;;;;;;;;;;21.90;82.80;;;;;;5086588;28;19913;-71
2023/05/14 14:07:53;;;;;;;;;;;21.90;82.90;;;;;;5086456;28;20433;-71
2023/05/14 14:10:19;;;;;;;;;;;22.00;82.90;;;;;;5086084;28;19923;-71